createdAt,value
2019-04-26T00:00:47.238Z,11.00
2019-04-26T00:03:20.298Z,11.10
2019-04-26T00:05:49.635Z,11.10
2019-04-26T00:08:18.995Z,11.10
2019-04-26T00:10:57.281Z,11.20
2019-04-26T00:13:37.154Z,11.20
2019-04-26T00:16:13.226Z,11.10
2019-04-26T00:18:42.698Z,11.10
2019-04-26T00:21:11.939Z,11.10
2019-04-26T00:23:41.462Z,11.10
2019-04-26T00:26:12.174Z,11.10
2019-04-26T00:28:41.938Z,11.00
2019-04-26T00:31:11.514Z,11.10
2019-04-26T00:33:40.897Z,11.10
2019-04-26T00:36:10.310Z,11.00
2019-04-26T00:38:39.461Z,11.00
2019-04-26T00:41:09.137Z,11.10
2019-04-26T00:43:38.496Z,11.00
2019-04-26T00:46:09.008Z,11.10
2019-04-26T00:48:39.489Z,11.10
2019-04-26T00:51:09.451Z,11.00
2019-04-26T00:53:39.626Z,11.00
2019-04-26T00:56:11.414Z,11.00
2019-04-26T00:58:41.202Z,11.00
2019-04-26T01:01:10.722Z,11.00
2019-04-26T01:03:40.387Z,11.00
2019-04-26T01:06:11.587Z,11.00
2019-04-26T01:08:40.875Z,10.90
2019-04-26T01:11:10.059Z,10.90
2019-04-26T01:13:39.192Z,10.90
2019-04-26T01:16:08.331Z,10.90
2019-04-26T01:18:37.605Z,10.90
2019-04-26T01:21:08.758Z,10.90
2019-04-26T01:23:41.076Z,10.90
2019-04-26T01:26:17.861Z,11.00
2019-04-26T01:28:55.042Z,11.00
2019-04-26T01:31:25.984Z,11.00
2019-04-26T01:33:55.509Z,11.00
2019-04-26T01:36:26.500Z,11.00
2019-04-26T01:38:59.349Z,11.00
2019-04-26T01:41:39.852Z,11.00
2019-04-26T01:44:18.078Z,11.00
2019-04-26T01:46:48.240Z,11.00
2019-04-26T01:49:21.315Z,11.10
2019-04-26T01:51:56.652Z,11.00
2019-04-26T01:54:29.924Z,11.00
2019-04-26T01:57:03.127Z,11.00
2019-04-26T01:59:33.368Z,11.00
2019-04-26T02:02:25.559Z,10.90
2019-04-26T02:04:57.657Z,10.90
2019-04-26T02:07:39.804Z,10.90
2019-04-26T02:10:14.501Z,10.90
2019-04-26T02:12:47.013Z,10.90
2019-04-26T02:15:17.855Z,10.80
2019-04-26T02:17:48.639Z,10.70
2019-04-26T02:21:11.259Z,10.70
2019-04-26T02:23:49.666Z,10.60
2019-04-26T02:26:36.156Z,10.60
2019-04-26T02:29:08.981Z,10.50
2019-04-26T02:31:40.410Z,10.40
2019-04-26T02:34:10.081Z,10.30
2019-04-26T02:36:56.500Z,10.30
2019-04-26T02:39:20.214Z,10.30
2019-04-26T02:41:52.224Z,10.30
2019-04-26T02:44:29.103Z,10.30
2019-04-26T02:47:30.967Z,10.30
2019-04-26T02:50:05.766Z,10.30
2019-04-26T02:52:46.308Z,10.30
2019-04-26T02:55:38.820Z,10.30
2019-04-26T02:58:06.281Z,10.30
2019-04-26T03:00:35.865Z,10.30
2019-04-26T03:03:08.688Z,10.40
2019-04-26T03:05:40.976Z,10.40
2019-04-26T03:08:20.142Z,10.40
2019-04-26T03:10:58.720Z,10.40
2019-04-26T03:13:46.062Z,10.40
2019-04-26T03:16:38.660Z,10.40
2019-04-26T03:19:18.311Z,10.40
2019-04-26T03:22:12.496Z,10.30
2019-04-26T03:24:49.672Z,10.20
2019-04-26T03:27:33.370Z,10.30
2019-04-26T03:30:19.754Z,10.20
2019-04-26T03:33:17.834Z,10.20
2019-04-26T03:36:18.757Z,10.20
2019-04-26T03:39:04.023Z,10.10
2019-04-26T03:42:04.366Z,10.00
2019-04-26T03:44:42.839Z,10.00
2019-04-26T03:47:18.079Z,10.00
2019-04-26T03:50:13.915Z,10.00
2019-04-26T03:53:21.476Z,9.90
2019-04-26T03:56:18.004Z,9.90
2019-04-26T03:59:13.097Z,9.80
2019-04-26T04:01:51.455Z,9.80
2019-04-26T04:04:41.628Z,9.70
2019-04-26T04:07:14.140Z,9.70
2019-04-26T04:09:48.441Z,9.70
2019-04-26T04:12:32.757Z,9.70
2019-04-26T04:15:10.748Z,9.70
2019-04-26T04:17:51.364Z,9.60
2019-04-26T04:20:49.151Z,9.60
2019-04-26T04:23:56.595Z,9.60
2019-04-26T04:26:44.389Z,9.50
2019-04-26T04:29:46.252Z,9.50
2019-04-26T04:32:52.128Z,9.50
2019-04-26T04:35:24.591Z,9.50
2019-04-26T04:38:08.599Z,9.50
2019-04-26T04:40:47.091Z,9.50
2019-04-26T04:43:43.825Z,9.50
2019-04-26T04:46:56.402Z,9.60
2019-04-26T04:49:48.932Z,9.60
2019-04-26T04:52:57.650Z,9.60
2019-04-26T04:55:53.194Z,9.60
2019-04-26T04:58:29.105Z,9.60
2019-04-26T05:01:54.998Z,9.60
2019-04-26T05:04:31.917Z,9.70
2019-04-26T05:07:25.540Z,9.70
2019-04-26T05:10:27.861Z,9.70
2019-04-26T05:13:16.030Z,9.70
2019-04-26T05:16:17.939Z,9.60
2019-04-26T05:19:26.876Z,9.50
2019-04-26T05:22:23.105Z,9.50
2019-04-26T05:25:43.637Z,9.60
2019-04-26T05:28:25.985Z,9.70
2019-04-26T05:31:21.730Z,9.60
2019-04-26T05:34:18.988Z,9.60
2019-04-26T05:37:13.358Z,9.60
2019-04-26T05:39:55.308Z,9.70
2019-04-26T05:43:49.159Z,9.70
2019-04-26T05:46:50.221Z,9.70
2019-04-26T05:50:05.790Z,9.70
2019-04-26T05:53:16.676Z,9.70
2019-04-26T05:56:25.760Z,9.60
2019-04-26T05:59:39.380Z,9.70
2019-04-26T06:02:47.737Z,9.80
2019-04-26T06:05:33.213Z,9.90
2019-04-26T06:08:30.663Z,10.00
2019-04-26T06:11:00.518Z,10.10
2019-04-26T06:14:47.074Z,10.20
2019-04-26T06:17:44.017Z,10.30
2019-04-26T06:20:33.025Z,10.30
2019-04-26T06:23:52.398Z,10.30
2019-04-26T06:27:10.355Z,10.50
2019-04-26T06:29:35.622Z,10.50
2019-04-26T06:32:31.287Z,10.50
2019-04-26T06:35:08.729Z,10.50
2019-04-26T06:37:55.454Z,10.60
2019-04-26T06:40:51.615Z,10.60
2019-04-26T06:43:30.698Z,10.70
2019-04-26T06:46:52.083Z,10.80
2019-04-26T06:49:54.221Z,11.00
2019-04-26T06:52:26.522Z,11.00
2019-04-26T06:55:04.256Z,11.20
2019-04-26T06:58:13.950Z,11.30
2019-04-26T07:01:11.873Z,11.50
2019-04-26T07:04:17.240Z,11.40
2019-04-26T07:07:10.592Z,11.50
2019-04-26T07:09:53.211Z,11.30
2019-04-26T07:12:32.537Z,11.40
2019-04-26T07:15:35.763Z,11.40
2019-04-26T07:18:32.619Z,11.50
2019-04-26T07:21:27.246Z,11.50
2019-04-26T07:24:33.531Z,11.40
2019-04-26T07:27:31.835Z,11.40
2019-04-26T07:30:40.958Z,11.50
2019-04-26T07:33:51.839Z,11.60
2019-04-26T07:37:07.118Z,11.80
2019-04-26T07:40:22.285Z,11.90
2019-04-26T07:43:18.693Z,12.00
2019-04-26T07:46:05.862Z,12.10
2019-04-26T07:49:14.724Z,12.20
2019-04-26T07:52:14.918Z,12.30
2019-04-26T07:55:12.850Z,12.60
2019-04-26T07:58:17.855Z,12.60
2019-04-26T08:01:05.481Z,12.60
2019-04-26T08:03:48.752Z,12.70
2019-04-26T08:06:43.203Z,12.80
2019-04-26T08:09:26.576Z,12.80
2019-04-26T08:11:51.089Z,12.90
2019-04-26T08:14:30.740Z,13.00
2019-04-26T08:17:47.246Z,13.00
2019-04-26T08:20:43.381Z,13.00
2019-04-26T08:23:37.515Z,13.20
2019-04-26T08:25:49.590Z,13.40
2019-04-26T08:28:21.443Z,13.50
2019-04-26T08:30:54.760Z,13.60
2019-04-26T08:33:30.777Z,13.70
2019-04-26T08:36:02.630Z,13.60
2019-04-26T08:38:34.033Z,13.40
2019-04-26T08:41:04.952Z,13.30
2019-04-26T08:44:14.444Z,13.40
2019-04-26T08:47:06.010Z,13.40
2019-04-26T08:49:45.617Z,13.30
2019-04-26T08:52:17.936Z,13.40
2019-04-26T08:54:54.961Z,13.70
2019-04-26T08:57:28.608Z,14.00
2019-04-26T09:00:00.177Z,14.30
2019-04-26T09:02:57.586Z,14.40
2019-04-26T09:05:49.936Z,14.60
2019-04-26T09:08:22.090Z,14.60
2019-04-26T09:10:53.123Z,14.50
2019-04-26T09:13:25.722Z,14.50
2019-04-26T09:16:04.431Z,14.50
2019-04-26T09:18:42.897Z,14.50
2019-04-26T09:21:04.665Z,14.40
2019-04-26T09:23:52.880Z,14.50
2019-04-26T09:26:48.498Z,14.70
2019-04-26T09:29:33.390Z,14.70
2019-04-26T09:32:09.534Z,14.90
2019-04-26T09:34:41.423Z,15.20
2019-04-26T09:37:09.929Z,15.30
2019-04-26T09:39:41.700Z,15.50
2019-04-26T09:42:32.121Z,15.50
2019-04-26T09:45:20.294Z,15.50
2019-04-26T09:48:01.093Z,15.50
2019-04-26T09:50:35.107Z,15.60
2019-04-26T09:53:04.551Z,15.80
2019-04-26T09:55:35.588Z,15.60
2019-04-26T09:58:04.937Z,15.70
2019-04-26T10:00:34.152Z,15.40
2019-04-26T10:03:05.602Z,15.40
2019-04-26T10:05:34.657Z,15.40
2019-04-26T10:08:04.078Z,15.70
2019-04-26T10:10:35.271Z,16.20
2019-04-26T10:13:32.686Z,16.40
2019-04-26T10:16:27.495Z,16.50
2019-04-26T10:19:10.231Z,16.90
2019-04-26T10:21:39.402Z,16.90
2019-04-26T10:24:08.710Z,16.20
2019-04-26T10:26:38.434Z,15.80
2019-04-26T10:29:07.603Z,15.90
2019-04-26T10:31:36.906Z,16.00
2019-04-26T10:34:07.702Z,16.20
2019-04-26T10:36:37.011Z,16.50
2019-04-26T10:39:10.535Z,16.80
2019-04-26T10:41:39.859Z,17.20
2019-04-26T10:44:09.207Z,17.00
2019-04-26T10:46:38.544Z,16.90
2019-04-26T10:49:38.680Z,17.00
2019-04-26T10:52:11.912Z,17.10
2019-04-26T10:54:45.957Z,17.10
2019-04-26T10:57:18.645Z,17.00
2019-04-26T10:59:56.629Z,16.80
2019-04-26T11:02:25.850Z,17.00
2019-04-26T11:04:55.182Z,17.10
2019-04-26T11:07:24.657Z,17.10
2019-04-26T11:09:53.886Z,17.20
2019-04-26T11:12:23.332Z,17.50
2019-04-26T11:14:53.419Z,17.60
2019-04-26T11:17:23.633Z,17.70
2019-04-26T11:19:52.774Z,18.00
2019-04-26T11:22:28.886Z,17.90
2019-04-26T11:24:53.736Z,18.00
2019-04-26T11:27:24.096Z,18.00
2019-04-26T11:29:54.187Z,18.00
2019-04-26T11:32:23.650Z,18.20
2019-04-26T11:34:54.524Z,18.50
2019-04-26T11:37:23.749Z,18.60
2019-04-26T11:39:53.134Z,18.10
2019-04-26T11:42:22.338Z,18.00
2019-04-26T11:44:51.528Z,18.30
2019-04-26T11:47:20.664Z,18.60
2019-04-26T11:49:50.219Z,18.20
2019-04-26T11:52:19.833Z,17.90
2019-04-26T11:54:51.280Z,17.90
2019-04-26T11:57:20.001Z,17.70
2019-04-26T11:59:49.209Z,17.50
2019-04-26T12:02:18.564Z,17.30
2019-04-26T12:04:54.975Z,17.70
2019-04-26T12:07:27.089Z,18.10
2019-04-26T12:09:58.146Z,18.40
2019-04-26T12:12:27.447Z,18.70
2019-04-26T12:14:57.531Z,19.10
2019-04-26T12:17:27.096Z,19.10
2019-04-26T12:19:56.450Z,19.40
2019-04-26T12:22:25.627Z,19.30
2019-04-26T12:24:54.820Z,19.70
2019-04-26T12:27:26.522Z,20.00
2019-04-26T12:29:54.996Z,19.80
2019-04-26T12:32:24.251Z,19.90
2019-04-26T12:34:53.380Z,19.80
2019-04-26T12:37:22.634Z,19.40
2019-04-26T12:39:51.813Z,19.10
2019-04-26T12:42:21.236Z,19.30
2019-04-26T12:45:18.656Z,19.20
2019-04-26T12:47:53.782Z,18.80
2019-04-26T12:50:23.225Z,18.40
2019-04-26T12:52:55.677Z,18.40
2019-04-26T12:55:23.457Z,19.00
2019-04-26T12:57:52.627Z,19.70
2019-04-26T13:00:26.226Z,20.00
2019-04-26T13:02:55.839Z,20.20
2019-04-26T13:05:25.360Z,20.00
2019-04-26T13:07:55.071Z,19.70
2019-04-26T13:10:46.104Z,19.50
2019-04-26T13:13:31.458Z,19.30
2019-04-26T13:16:26.374Z,19.20
2019-04-26T13:18:53.510Z,19.90
2019-04-26T13:21:22.633Z,20.40
2019-04-26T13:23:51.827Z,20.00
2019-04-26T13:26:21.096Z,19.30
2019-04-26T13:28:52.550Z,18.90
2019-04-26T13:31:21.466Z,18.60
2019-04-26T13:33:50.848Z,18.20
2019-04-26T13:36:20.053Z,18.00
2019-04-26T13:38:49.292Z,17.90
2019-04-26T13:41:18.427Z,17.90
2019-04-26T13:43:47.743Z,17.80
2019-04-26T13:46:42.213Z,17.60
2019-04-26T13:49:30.578Z,17.80
2019-04-26T13:51:59.844Z,17.70
2019-04-26T13:54:29.205Z,17.70
2019-04-26T13:56:58.345Z,17.80
2019-04-26T13:59:28.098Z,18.10
2019-04-26T14:02:10.595Z,18.50
2019-04-26T14:04:29.379Z,18.70
2019-04-26T14:06:58.718Z,18.90
2019-04-26T14:09:27.992Z,18.90
2019-04-26T14:11:58.067Z,19.10
2019-04-26T14:14:30.270Z,19.10
2019-04-26T14:16:58.450Z,19.20
2019-04-26T14:19:27.666Z,19.40
2019-04-26T14:21:56.900Z,20.30
2019-04-26T14:24:37.631Z,20.80
2019-04-26T14:27:15.108Z,20.30
2019-04-26T14:29:41.853Z,20.10
2019-04-26T14:32:11.083Z,20.30
2019-04-26T14:34:41.741Z,20.80
2019-04-26T14:37:15.435Z,20.60
2019-04-26T14:39:49.999Z,20.40
2019-04-26T14:42:13.110Z,20.00
2019-04-26T14:44:49.302Z,19.80
2019-04-26T14:47:17.470Z,20.60
2019-04-26T14:49:44.219Z,22.90
2019-04-26T14:52:13.340Z,24.50
2019-04-26T14:54:45.945Z,24.90
2019-04-26T14:57:21.398Z,25.50
2019-04-26T14:59:48.173Z,26.20
2019-04-26T15:02:35.343Z,25.80
2019-04-26T15:05:12.243Z,25.50
2019-04-26T15:07:50.716Z,25.00
2019-04-26T15:10:13.987Z,23.00
2019-04-26T15:12:47.002Z,22.40
2019-04-26T15:15:14.163Z,22.90
2019-04-26T15:17:43.320Z,23.10
2019-04-26T15:20:16.494Z,23.60
2019-04-26T15:22:48.531Z,24.20
2019-04-26T15:25:15.111Z,24.50
2019-04-26T15:27:44.316Z,25.10
2019-04-26T15:30:13.884Z,25.60
2019-04-26T15:32:43.230Z,26.10
2019-04-26T15:35:16.157Z,25.30
2019-04-26T15:37:43.616Z,23.30
2019-04-26T15:40:38.348Z,23.10
2019-04-26T15:43:20.071Z,22.70
2019-04-26T15:46:12.333Z,22.30
2019-04-26T15:48:50.256Z,21.90
2019-04-26T15:51:24.425Z,23.50
2019-04-26T15:53:53.877Z,24.90
2019-04-26T15:56:23.018Z,24.20
2019-04-26T15:58:52.405Z,23.40
2019-04-26T16:01:21.903Z,23.30
2019-04-26T16:03:52.936Z,24.40
2019-04-26T16:06:23.529Z,24.00
2019-04-26T16:08:52.810Z,22.70
2019-04-26T16:11:21.947Z,21.40
2019-04-26T16:13:55.317Z,20.60
2019-04-26T16:16:27.885Z,20.30
2019-04-26T16:18:55.566Z,20.30
2019-04-26T16:21:23.858Z,20.20
2019-04-26T16:23:55.295Z,20.00
2019-04-26T16:26:23.935Z,20.20
2019-04-26T16:32:21.965Z,19.90
2019-04-26T16:34:52.823Z,19.80
2019-04-26T16:37:23.839Z,21.10
2019-04-26T16:39:54.697Z,23.20
2019-04-26T16:42:23.971Z,24.60
2019-04-26T16:44:55.124Z,25.60
2019-04-26T16:47:24.124Z,26.30
2019-04-26T16:49:54.644Z,26.10
2019-04-26T16:52:23.981Z,25.40
2019-04-26T16:55:02.273Z,25.40
2019-04-26T16:57:24.449Z,25.60
2019-04-26T16:59:57.576Z,25.60
2019-04-26T17:00:30.712Z,20.20
2019-04-26T17:02:26.504Z,25.30
2019-04-26T17:04:55.490Z,25.60
2019-04-26T17:07:27.349Z,25.40
2019-04-26T17:09:59.407Z,25.60
2019-04-26T17:12:26.581Z,25.50
2019-04-26T17:14:55.802Z,25.70
2019-04-26T17:17:24.944Z,25.60
2019-04-26T17:19:54.119Z,25.50
2019-04-26T17:22:56.946Z,25.10
2019-04-26T17:25:42.502Z,24.30
2019-04-26T17:28:11.966Z,22.90
2019-04-26T17:30:44.607Z,22.00
2019-04-26T17:33:13.667Z,21.30
2019-04-26T17:35:42.810Z,20.80
2019-04-26T17:38:11.944Z,20.10
2019-04-26T17:40:41.210Z,20.00
2019-04-26T17:43:11.472Z,19.70
2019-04-26T17:45:44.138Z,19.70
2019-04-26T17:48:14.161Z,19.50
2019-04-26T17:50:43.321Z,19.30
2019-04-26T17:53:25.777Z,19.10
2019-04-26T17:55:45.891Z,19.20
2019-04-26T17:58:17.705Z,19.30
2019-04-26T18:00:46.754Z,19.20
2019-04-26T18:03:16.367Z,19.00
2019-04-26T18:05:56.648Z,19.00
2019-04-26T18:08:33.611Z,18.90
2019-04-26T18:10:48.093Z,18.90
2019-04-26T18:13:17.793Z,18.90
2019-04-26T18:15:48.602Z,18.90
2019-04-26T18:18:35.786Z,18.80
2019-04-26T18:21:33.476Z,18.70
2019-04-26T18:24:03.169Z,18.50
2019-04-26T18:26:32.830Z,18.30
2019-04-26T18:29:03.736Z,18.10
2019-04-26T18:31:33.614Z,18.00
2019-04-26T18:34:04.136Z,17.90
2019-04-26T18:36:33.765Z,17.80
2019-04-26T18:39:03.907Z,18.00
2019-04-26T18:41:33.934Z,17.90
2019-04-26T18:44:03.402Z,17.80
2019-04-26T18:46:54.655Z,17.80
2019-04-26T18:49:27.002Z,17.80
2019-04-26T18:51:54.753Z,17.80
2019-04-26T18:54:28.930Z,17.70
2019-04-26T18:57:00.306Z,17.70
2019-04-26T18:59:29.442Z,17.70
2019-04-26T19:01:58.713Z,17.70
2019-04-26T19:04:27.859Z,17.50
2019-04-26T19:06:57.016Z,17.60
2019-04-26T19:09:28.159Z,17.60
2019-04-26T19:11:57.390Z,17.50
2019-04-26T19:14:50.321Z,17.40
2019-04-26T19:17:35.671Z,17.30
2019-04-26T19:20:22.812Z,17.20
2019-04-26T19:22:57.302Z,17.10
2019-04-26T19:25:29.882Z,17.00
2019-04-26T19:27:58.666Z,16.80
2019-04-26T19:30:29.164Z,16.80
2019-04-26T19:32:58.753Z,16.70
2019-04-26T19:35:28.043Z,16.60
2019-04-26T19:37:57.336Z,16.50
2019-04-26T19:40:27.479Z,16.40
2019-04-26T19:42:57.674Z,16.30
2019-04-26T19:45:34.717Z,16.10
2019-04-26T19:48:22.761Z,16.10
2019-04-26T19:50:59.265Z,16.00
2019-04-26T19:53:36.434Z,15.90
2019-04-26T19:56:17.469Z,15.80
2019-04-26T19:58:49.900Z,15.70
2019-04-26T20:01:20.840Z,15.60
2019-04-26T20:03:52.147Z,15.60
2019-04-26T20:06:19.888Z,15.50
2019-04-26T20:08:49.617Z,15.40
2019-04-26T20:11:20.225Z,15.40
2019-04-26T20:13:51.908Z,15.40
2019-04-26T20:16:22.185Z,15.40
2019-04-26T20:18:52.358Z,15.30
2019-04-26T20:21:21.917Z,15.20
2019-04-26T20:23:53.939Z,15.20
2019-04-26T20:26:22.590Z,15.10
2019-04-26T20:28:51.943Z,15.20
2019-04-26T20:31:28.358Z,15.00
2019-04-26T20:33:57.504Z,15.00
2019-04-26T20:36:26.841Z,14.80
2019-04-26T20:38:56.009Z,14.80
2019-04-26T20:41:25.222Z,14.70
2019-04-26T20:44:05.178Z,14.60
2019-04-26T20:46:25.469Z,14.50
2019-04-26T20:48:54.689Z,14.40
2019-04-26T20:51:24.193Z,14.20
2019-04-26T20:53:53.913Z,14.10
2019-04-26T20:56:23.125Z,13.90
2019-04-26T20:58:52.431Z,13.80
2019-04-26T21:01:22.385Z,13.70
2019-04-26T21:03:52.065Z,13.60
2019-04-26T21:06:22.239Z,13.60
2019-04-26T21:08:52.241Z,13.50
2019-04-26T21:11:22.953Z,13.40
2019-04-26T21:13:52.428Z,13.40
2019-04-26T21:16:22.111Z,13.30
2019-04-26T21:18:52.413Z,13.20
2019-04-26T21:21:21.891Z,13.20
2019-04-26T21:23:52.166Z,13.20
2019-04-26T21:26:54.462Z,13.10
2019-04-26T21:29:52.420Z,13.10
2019-04-26T21:32:37.712Z,12.90
2019-04-26T21:35:10.871Z,12.90
2019-04-26T21:37:49.231Z,13.00
2019-04-26T21:40:23.357Z,13.00
2019-04-26T21:42:54.610Z,13.00
2019-04-26T21:45:28.373Z,13.00
2019-04-26T21:47:54.341Z,13.00
2019-04-26T21:50:23.620Z,12.90
2019-04-26T21:52:54.165Z,12.80
2019-04-26T21:55:26.527Z,12.80
2019-04-26T21:57:54.275Z,12.80
2019-04-26T22:00:55.122Z,12.80
2019-04-26T22:03:24.741Z,12.70
2019-04-26T22:05:54.191Z,12.70
2019-04-26T22:08:27.462Z,12.60
2019-04-26T22:10:56.756Z,12.60
2019-04-26T22:13:41.525Z,12.50
2019-04-26T22:16:37.175Z,12.50
2019-04-26T22:19:23.836Z,12.50
2019-04-26T22:22:30.324Z,12.50
2019-04-26T22:24:59.927Z,12.50
2019-04-26T22:27:29.152Z,12.40
2019-04-26T22:29:58.487Z,12.30
2019-04-26T22:32:27.777Z,12.30
2019-04-26T22:34:57.446Z,12.30
2019-04-26T22:37:29.969Z,12.30
2019-04-26T22:39:57.701Z,12.30
2019-04-26T22:42:27.436Z,12.30
2019-04-26T22:45:13.415Z,12.30
2019-04-26T22:48:11.547Z,12.30
2019-04-26T22:50:43.565Z,12.20
2019-04-26T22:53:12.893Z,12.20
2019-04-26T22:55:43.573Z,12.10
2019-04-26T22:58:13.482Z,12.10
2019-04-26T23:00:43.680Z,12.10
2019-04-26T23:03:13.735Z,12.10
2019-04-26T23:05:43.397Z,12.00
2019-04-26T23:08:13.566Z,12.00
2019-04-26T23:10:49.294Z,12.00
2019-04-26T23:13:25.948Z,12.00
2019-04-26T23:16:08.335Z,12.00
2019-04-26T23:21:44.299Z,11.90
2019-04-26T23:24:17.619Z,11.90
2019-04-26T23:26:45.305Z,11.80
2019-04-26T23:29:18.087Z,11.80
2019-04-26T23:31:45.893Z,11.80
2019-04-26T23:34:15.298Z,11.80
2019-04-26T23:36:49.181Z,11.80
2019-04-26T23:39:15.733Z,11.80
2019-04-26T23:41:44.987Z,11.80
2019-04-26T23:44:14.345Z,11.80
2019-04-26T23:46:43.654Z,11.70
2019-04-26T23:49:14.473Z,11.70
2019-04-26T23:51:45.822Z,11.70
2019-04-26T23:54:14.909Z,11.60
2019-04-26T23:56:44.257Z,11.50
2019-04-26T23:59:16.444Z,11.50
